Caden Foss — WDJ6190 — position and weather

sailwx.info

Track history (hours):
 
Tides and Currents Weather Stations Pressure Air Temp Water Temp Dewpoint Dewpoint Depression Visibility Wind Speed Wind Dir Waves Ship Positions

Caden Foss

Owner: Foss Maritime Co, Seattle, WA. More information available from US FCC via Universal Licensing System and Coast Guard Vessel Documentation Center.

Last reported at 2017-Oct-18 17:58 UTC. Time now 2017-Oct-18 18:18 UTC.
Position N 37°55' W 122°25'.

Length 34 m; draft 6.1 m.

Type: Tug. MMSI: 367795270.

Date/timePositionNaut miles runAvg speedWind from/ knotsBaromVisibWave heightAir tempDewpointWater temp
2017-Oct-18 17:58N 37°55' W 122°25'0 0.2
2017-Oct-18 16:55N 37°55' W 122°25'1 2.2
2017-Oct-18 16:30N 37°55' W 122°26'1 0.7
2017-Oct-18 14:56N 37°55' W 122°25'2 1.8
2017-Oct-18 13:49N 37°54' W 122°22'0 0.0
2017-Oct-18 13:25N 37°54' W 122°22'0 0.0
2017-Oct-18 12:55N 37°54' W 122°22'0 0.0
2017-Oct-18 12:25N 37°54' W 122°22'0 0.0
2017-Oct-18 11:55N 37°54' W 122°22'0 0.0
2017-Oct-18 11:25N 37°54' W 122°22'0 0.0
2017-Oct-18 10:55N 37°54' W 122°22'0 0.0
2017-Oct-18 10:19N 37°54' W 122°22'0 0.0
2017-Oct-18 09:55N 37°54' W 122°22'0 0.0
2017-Oct-18 09:25N 37°54' W 122°22'0 0.0
2017-Oct-18 08:55N 37°54' W 122°22'0 0.0
2017-Oct-18 08:25N 37°54' W 122°22'0 0.0
2017-Oct-18 07:55N 37°54' W 122°22'0 0.0
2017-Oct-18 07:25N 37°54' W 122°22'0 0.0
2017-Oct-18 06:55N 37°54' W 122°22'0 0.0
2017-Oct-18 06:25N 37°54' W 122°22'0 0.0
2017-Oct-18 05:55N 37°54' W 122°22'0 0.0
2017-Oct-18 05:19N 37°54' W 122°22'0 0.0
2017-Oct-18 04:58N 37°54' W 122°22'0 0.0
2017-Oct-18 04:19N 37°54' W 122°22'0 0.0
2017-Oct-18 03:55N 37°54' W 122°22'0 0.0
2017-Oct-18 03:28N 37°54' W 122°22'0 0.0
2017-Oct-18 02:58N 37°54' W 122°22'0 0.0
2017-Oct-18 02:28N 37°54' W 122°22'0 0.0
2017-Oct-18 01:58N 37°54' W 122°22'0 0.0
2017-Oct-18 01:22N 37°54' W 122°22'0 0.0
2017-Oct-18 00:52N 37°54' W 122°22'0 0.0
2017-Oct-18 00:25N 37°54' W 122°22'0 0.0
2017-Oct-17 23:58N 37°54' W 122°22'0 0.0
2017-Oct-17 23:22N 37°54' W 122°22'0 0.0
2017-Oct-17 22:58N 37°54' W 122°22'0 0.0
2017-Oct-17 22:28N 37°54' W 122°22'0 0.0
2017-Oct-17 21:58N 37°54' W 122°22'0 0.0
2017-Oct-17 21:28N 37°54' W 122°22'0 0.0
2017-Oct-17 20:49N 37°54' W 122°22'0 0.0
2017-Oct-17 20:10N 37°54' W 122°22'0 0.0
2017-Oct-17 19:58N 37°54' W 122°22'0 0.0
2017-Oct-17 19:16N 37°54' W 122°22'0 0.0
2017-Oct-17 18:55N 37°54' W 122°22'0 0.0
2017-Oct-17 18:23N 37°54' W 122°22'2 5.7
2017-Oct-17 17:59N 37°54' W 122°25'511.2
2017-Oct-17 17:30N 37°50' W 122°22'3 6.5
2017-Oct-17 17:00N 37°48' W 122°19'1 1.7
2017-Oct-17 16:30N 37°48' W 122°17'1 2.5
2017-Oct-17 16:00N 37°48' W 122°19'0 0.2
2017-Oct-17 15:30N 37°48' W 122°19'0 0.0
2017-Oct-17 15:00N 37°48' W 122°19'0 0.0
2017-Oct-17 14:30N 37°48' W 122°19'0 0.0
2017-Oct-17 14:00N 37°48' W 122°19'0 0.0
2017-Oct-17 13:30N 37°48' W 122°19'1 2.7
2017-Oct-17 13:01N 37°48' W 122°21'2 3.2
2017-Oct-17 12:30N 37°46' W 122°21'3 6.5
2017-Oct-17 12:00N 37°49' W 122°24'611.5
2017-Oct-17 11:30N 37°54' W 122°25'2 3.4
2017-Oct-17 11:00N 37°54' W 122°23'1 2.6
2017-Oct-17 10:31N 37°55' W 122°22'0 0.0
2017-Oct-17 10:00N 37°55' W 122°22'1 1.2
2017-Oct-17 09:30N 37°54' W 122°22'0 0.8
2017-Oct-17 08:58N 37°54' W 122°22'0 0.0
2017-Oct-17 08:28N 37°54' W 122°22'0 0.0
2017-Oct-17 07:58N 37°54' W 122°22'0 0.0
2017-Oct-17 07:28N 37°54' W 122°22'0 0.0
2017-Oct-17 06:58N 37°54' W 122°22'0 0.0
2017-Oct-17 06:28N 37°54' W 122°22'0 0.0
2017-Oct-17 05:58N 37°54' W 122°22'0 0.0
2017-Oct-17 05:28N 37°54' W 122°22'0 0.0
2017-Oct-17 04:58N 37°54' W 122°22'0 0.0
2017-Oct-17 04:28N 37°54' W 122°22'0 0.0
2017-Oct-17 03:58N 37°54' W 122°22'0 0.0
2017-Oct-17 03:16N 37°54' W 122°22'1 3.5
2017-Oct-17 03:00N 37°55' W 122°22'1 1.1
2017-Oct-17 02:30N 37°55' W 122°22'1 1.2
2017-Oct-17 02:00N 37°54' W 122°22'0 0.0
2017-Oct-17 01:30N 37°54' W 122°22'0 0.0
2017-Oct-17 00:58N 37°54' W 122°22'0 0.2
2017-Oct-17 00:28N 37°54' W 122°22'0 0.2
2017-Oct-16 23:58N 37°54' W 122°22'2 3.4
2017-Oct-16 23:30N 37°55' W 122°24'1 1.4
2017-Oct-16 22:58N 37°55' W 122°25'0 0.0
2017-Oct-16 22:28N 37°55' W 122°25'0 0.0
2017-Oct-16 21:58N 37°55' W 122°25'0 0.0
2017-Oct-16 21:28N 37°55' W 122°25'0 0.0
2017-Oct-16 20:58N 37°55' W 122°25'0 0.0
2017-Oct-16 20:28N 37°55' W 122°25'0 0.0
2017-Oct-16 19:58N 37°55' W 122°25'0 0.0
2017-Oct-16 19:28N 37°55' W 122°25'0 0.0
2017-Oct-16 18:55N 37°55' W 122°25'0 0.0
2017-Oct-16 18:28N 37°55' W 122°25'0 0.0
2017-Oct-16 17:58N 37°55' W 122°25'0 0.0
2017-Oct-16 17:28N 37°55' W 122°25'0 0.0
2017-Oct-16 16:58N 37°55' W 122°25'0 0.0
2017-Oct-16 16:28N 37°55' W 122°25'0 0.0
2017-Oct-16 15:58N 37°55' W 122°25'0 0.0
2017-Oct-16 15:28N 37°55' W 122°25'0 0.0
2017-Oct-16 14:58N 37°55' W 122°25'0 0.0
2017-Oct-16 14:00N 37°55' W 122°25'0 0.0
2017-Oct-16 13:30N 37°55' W 122°25'0 0.0
2017-Oct-16 13:01N 37°55' W 122°25'0 0.0
2017-Oct-16 12:30N 37°55' W 122°25'0 0.0
2017-Oct-16 12:01N 37°55' W 122°25'0 0.0
2017-Oct-16 11:31N 37°55' W 122°25'0 0.0
2017-Oct-16 11:01N 37°55' W 122°25'0 0.0
2017-Oct-16 10:30N 37°55' W 122°25'0 0.0
2017-Oct-16 10:01N 37°55' W 122°25'0 0.0
2017-Oct-16 09:31N 37°55' W 122°25'0 0.0
2017-Oct-16 09:01N 37°55' W 122°25'0 0.0
2017-Oct-16 08:30N 37°55' W 122°25'0 0.0
2017-Oct-16 08:01N 37°55' W 122°25'0 0.0
2017-Oct-16 07:31N 37°55' W 122°25'0 0.0
2017-Oct-16 07:01N 37°55' W 122°25'1 1.9
2017-Oct-16 06:30N 37°55' W 122°25'1 1.9
2017-Oct-16 06:01N 37°55' W 122°25'0 0.3
2017-Oct-16 05:31N 37°55' W 122°25'0 0.4
2017-Oct-16 05:00N 37°55' W 122°25'0 0.0
2017-Oct-16 04:30N 37°55' W 122°25'0 0.0
2017-Oct-16 04:00N 37°55' W 122°25'0 0.0
2017-Oct-16 03:30N 37°55' W 122°25'0 0.0
2017-Oct-16 02:57N 37°55' W 122°25'0 0.0
2017-Oct-16 02:30N 37°55' W 122°25'0 0.0
2017-Oct-16 02:00N 37°55' W 122°25'0 0.0
2017-Oct-16 01:27N 37°55' W 122°25'0 0.0
2017-Oct-16 01:00N 37°55' W 122°25'0 0.0
2017-Oct-16 00:30N 37°55' W 122°25'0 0.0
2017-Oct-15 23:57N 37°55' W 122°25'0 0.0
2017-Oct-15 23:30N 37°55' W 122°25'0 0.0
2017-Oct-15 23:00N 37°55' W 122°25'0 0.0
2017-Oct-15 22:30N 37°55' W 122°25'0 0.0
2017-Oct-15 22:00N 37°55' W 122°25'0 0.0
2017-Oct-15 21:30N 37°55' W 122°25'0 0.0
2017-Oct-15 20:57N 37°55' W 122°25'0 0.0
2017-Oct-15 20:30N 37°55' W 122°25'0 0.0
2017-Oct-15 20:00N 37°55' W 122°25'0 0.0
2017-Oct-15 19:27N 37°55' W 122°25'0 0.0
2017-Oct-15 19:00N 37°55' W 122°25'0 0.0
2017-Oct-15 18:30N 37°55' W 122°25'0 0.0
2017-Oct-15 18:00N 37°55' W 122°25'0 0.0
2017-Oct-15 17:30N 37°55' W 122°25'0 0.0
2017-Oct-15 17:00N 37°55' W 122°25'0 0.0
2017-Oct-15 16:30N 37°55' W 122°25'0 0.0
2017-Oct-15 15:57N 37°55' W 122°25'0 0.0
2017-Oct-15 15:21N 37°55' W 122°25'0 0.0
2017-Oct-15 15:00N 37°55' W 122°25'0 0.0
2017-Oct-15 13:59N 37°55' W 122°25'0 0.0
2017-Oct-15 13:24N 37°55' W 122°25'0 0.0
2017-Oct-15 13:00N 37°55' W 122°25'0 0.0
2017-Oct-15 12:30N 37°55' W 122°25'0 0.0
2017-Oct-15 11:57N 37°55' W 122°25'0 0.0
2017-Oct-15 11:30N 37°55' W 122°25'0 0.0
2017-Oct-15 10:59N 37°55' W 122°25'0 0.0
2017-Oct-15 10:30N 37°55' W 122°25'0 0.0
2017-Oct-15 09:56N 37°55' W 122°25'0 0.0
2017-Oct-15 09:27N 37°55' W 122°25'0 0.0
2017-Oct-15 09:00N 37°55' W 122°25'0 0.0
2017-Oct-15 08:29N 37°55' W 122°25'0 0.0
2017-Oct-15 08:00N 37°55' W 122°25'0 0.0
2017-Oct-15 07:30N 37°55' W 122°25'0 0.0
2017-Oct-15 07:00N 37°55' W 122°25'0 0.0
2017-Oct-15 06:29N 37°55' W 122°25'0 0.6
2017-Oct-15 06:00N 37°56' W 122°25'0 0.3
2017-Oct-15 05:30N 37°55' W 122°25'2 3.4
2017-Oct-15 05:00N 37°54' W 122°25'4 8.1
2017-Oct-15 04:30N 37°50' W 122°24'3 6.9
2017-Oct-15 04:01N 37°49' W 122°28'1 2.2
2017-Oct-15 03:30N 37°49' W 122°30'1 1.2
2017-Oct-15 03:00N 37°49' W 122°31'2 3.1
2017-Oct-15 02:30N 37°49' W 122°29'4 8.2
2017-Oct-15 02:00N 37°53' W 122°26'3 6.7
2017-Oct-15 01:30N 37°54' W 122°22'0 0.0
2017-Oct-15 00:58N 37°54' W 122°22'0 0.0
2017-Oct-15 00:28N 37°54' W 122°22'0 0.0
2017-Oct-14 23:55N 37°54' W 122°22'0 0.0
2017-Oct-14 23:25N 37°54' W 122°22'0 0.0
2017-Oct-14 22:58N 37°54' W 122°22'0 0.0
2017-Oct-14 22:28N 37°54' W 122°22'0 0.0
2017-Oct-14 21:58N 37°54' W 122°22'0 0.0
2017-Oct-14 21:28N 37°54' W 122°22'0 0.0
2017-Oct-14 20:58N 37°54' W 122°22'0 0.0
2017-Oct-14 20:25N 37°54' W 122°22'0 0.0
2017-Oct-14 19:58N 37°54' W 122°22'0 0.0
2017-Oct-14 19:28N 37°54' W 122°22'0 0.0
2017-Oct-14 18:58N 37°54' W 122°22'0 0.0
2017-Oct-14 18:28N 37°54' W 122°22'0 0.0
2017-Oct-14 17:55N 37°54' W 122°22'0 0.0
2017-Oct-14 17:28N 37°54' W 122°22'0 0.0
2017-Oct-14 16:58N 37°54' W 122°22'0 0.0
2017-Oct-14 16:28N 37°54' W 122°22'0 0.0
2017-Oct-14 15:58N 37°54' W 122°22'0 0.0
2017-Oct-14 15:25N 37°54' W 122°22'0 0.0
2017-Oct-14 14:58N 37°54' W 122°22'2 4.6
2017-Oct-14 14:30N 37°55' W 122°25'510.6
2017-Oct-14 14:01N 37°50' W 122°22'3 5.9
2017-Oct-14 13:30N 37°48' W 122°19'0 0.8
2017-Oct-14 13:00N 37°48' W 122°19'1 2.4
2017-Oct-14 12:30N 37°48' W 122°17'2 3.2
2017-Oct-14 12:00N 37°48' W 122°19'1 1.5
2017-Oct-14 11:30N 37°48' W 122°20'2 4.7
2017-Oct-14 11:00N 37°49' W 122°23'611.1
2017-Oct-14 10:30N 37°55' W 122°25'2 3.0
2017-Oct-14 09:52N 37°54' W 122°22'0 0.0
2017-Oct-14 09:28N 37°54' W 122°22'0 0.0
2017-Oct-14 08:58N 37°54' W 122°22'0 0.0
2017-Oct-14 08:28N 37°54' W 122°22'0 0.0
2017-Oct-14 07:58N 37°54' W 122°22'0 0.0
2017-Oct-14 07:28N 37°54' W 122°22'0 0.0
2017-Oct-14 06:58N 37°54' W 122°22'0 0.0
2017-Oct-14 06:28N 37°54' W 122°22'0 0.0
2017-Oct-14 05:58N 37°54' W 122°22'0 0.0
2017-Oct-14 05:22N 37°54' W 122°22'0 0.0
2017-Oct-14 04:52N 37°54' W 122°22'0 0.0
2017-Oct-14 04:28N 37°54' W 122°22'0 0.0
2017-Oct-14 03:55N 37°54' W 122°22'0 0.0
2017-Oct-14 03:25N 37°54' W 122°22'0 0.0
2017-Oct-14 02:58N 37°54' W 122°22'0 0.0
2017-Oct-14 02:25N 37°54' W 122°22'0 0.0
2017-Oct-14 01:58N 37°54' W 122°22'0 0.0
2017-Oct-14 01:28N 37°54' W 122°22'0 0.0
2017-Oct-14 00:49N 37°54' W 122°22'0 0.0
2017-Oct-14 00:28N 37°54' W 122°22'0 0.0
2017-Oct-13 23:58N 37°54' W 122°22'0 0.0
2017-Oct-13 23:25N 37°54' W 122°22'0 0.0
2017-Oct-13 22:58N 37°54' W 122°22'0 0.0
2017-Oct-13 22:28N 37°54' W 122°22'0 0.0
2017-Oct-13 21:58N 37°54' W 122°22'0 0.0
2017-Oct-13 21:28N 37°54' W 122°22'0 0.0
2017-Oct-13 20:58N 37°54' W 122°22'0 0.0
2017-Oct-13 20:25N 37°54' W 122°22'0 0.0
2017-Oct-13 19:58N 37°54' W 122°22'0 0.0
2017-Oct-13 19:28N 37°54' W 122°22'0 0.0
2017-Oct-13 18:55N 37°54' W 122°22'0 0.0
2017-Oct-13 18:28N 37°54' W 122°22'0 0.0
2017-Oct-13 17:58N 37°54' W 122°22'0 0.0
2017-Oct-13 17:28N 37°54' W 122°22'0 0.0
2017-Oct-13 16:58N 37°54' W 122°22'0 0.0
2017-Oct-13 16:25N 37°54' W 122°22'0 0.0
2017-Oct-13 15:58N 37°54' W 122°22'0 0.0
2017-Oct-13 15:25N 37°54' W 122°22'0 0.0
2017-Oct-13 14:58N 37°54' W 122°22'0 0.0
2017-Oct-13 14:25N 37°54' W 122°22'0 0.0
2017-Oct-13 13:58N 37°54' W 122°22'0 0.0
2017-Oct-13 13:28N 37°54' W 122°22'0 0.0
2017-Oct-13 12:58N 37°54' W 122°22'0 0.0
2017-Oct-13 12:28N 37°54' W 122°22'0 0.0
2017-Oct-13 11:58N 37°54' W 122°22'0 0.0
2017-Oct-13 11:30N 37°54' W 122°22'3 7.0
2017-Oct-13 11:00N 37°53' W 122°26'5 9.9
2017-Oct-13 10:30N 37°49' W 122°31'1 1.1
2017-Oct-13 10:01N 37°49' W 122°31'1 2.7
2017-Oct-13 09:30N 37°49' W 122°29'3 6.9
2017-Oct-13 09:00N 37°50' W 122°25'3 6.0
2017-Oct-13 08:30N 37°53' W 122°25'1 1.7
2017-Oct-13 08:00N 37°54' W 122°26'1 2.6
2017-Oct-13 07:30N 37°55' W 122°25'1 1.1
2017-Oct-13 07:00N 37°55' W 122°25'0 0.4
2017-Oct-13 06:30N 37°55' W 122°25'0 0.0
2017-Oct-13 05:55N 37°55' W 122°25'0 0.0
2017-Oct-13 05:28N 37°55' W 122°25'0 0.0
2017-Oct-13 04:58N 37°55' W 122°25'0 0.0
2017-Oct-13 04:28N 37°55' W 122°25'0 0.0
2017-Oct-13 03:58N 37°55' W 122°25'0 0.0
2017-Oct-13 03:28N 37°55' W 122°25'0 0.0
2017-Oct-13 02:55N 37°55' W 122°25'0 0.0
2017-Oct-13 02:28N 37°55' W 122°25'0 0.0
2017-Oct-13 01:58N 37°55' W 122°25'1 3.0
2017-Oct-13 01:30N 37°54' W 122°23'1 2.3
2017-Oct-13 00:59N 37°54' W 122°22'0 0.3
2017-Oct-13 00:31N 37°54' W 122°22'0 0.7
2017-Oct-12 23:56N 37°54' W 122°22'0 0.0
2017-Oct-12 23:20N 37°54' W 122°22'0 0.0
2017-Oct-12 22:56N 37°54' W 122°22'0 0.0
2017-Oct-12 22:26N 37°54' W 122°22'0 0.0
2017-Oct-12 21:55N 37°54' W 122°22'0 0.0
2017-Oct-12 21:28N 37°54' W 122°22'0 0.0
2017-Oct-12 20:58N 37°54' W 122°22'0 0.0
2017-Oct-12 20:22N 37°54' W 122°22'0 0.0
2017-Oct-12 19:58N 37°54' W 122°22'0 0.0
2017-Oct-12 19:28N 37°54' W 122°22'0 0.0
2017-Oct-12 18:58N 37°54' W 122°22'0 0.0
2017-Oct-12 18:28N 37°54' W 122°22'0 0.0
2017-Oct-12 17:58N 37°54' W 122°22'0 0.0
2017-Oct-12 17:28N 37°54' W 122°22'0 0.0
2017-Oct-12 16:58N 37°54' W 122°22'0 0.0
2017-Oct-12 16:28N 37°54' W 122°22'0 0.0
2017-Oct-12 15:58N 37°54' W 122°22'0 0.0
2017-Oct-12 15:28N 37°54' W 122°22'0 0.0
2017-Oct-12 14:58N 37°54' W 122°22'0 0.0
2017-Oct-12 14:28N 37°54' W 122°22'1 2.0
2017-Oct-12 14:00N 37°54' W 122°23'4 7.6
2017-Oct-12 13:30N 37°51' W 122°23'4 7.8
2017-Oct-12 13:00N 37°48' W 122°19'0 0.1
2017-Oct-12 12:30N 37°48' W 122°19'2 3.3
2017-Oct-12 12:00N 37°48' W 122°17'1 2.9
2017-Oct-12 11:31N 37°48' W 122°19'2 4.3
2017-Oct-12 11:01N 37°47' W 122°22'1 1.9
2017-Oct-12 10:30N 37°48' W 122°21'1 2.6
2017-Oct-12 10:00N 37°49' W 122°23'4 8.7
2017-Oct-12 09:30N 37°53' W 122°25'3 5.1
2017-Oct-12 09:00N 37°55' W 122°25'0 0.2
2017-Oct-12 08:30N 37°55' W 122°25'3 5.1
2017-Oct-12 08:00N 37°55' W 122°22'1 1.4
2017-Oct-12 07:30N 37°55' W 122°22'1 1.8
2017-Oct-12 07:00N 37°54' W 122°22'0 0.0
2017-Oct-12 06:29N 37°54' W 122°22'0 0.0
2017-Oct-12 05:59N 37°54' W 122°22'2 4.4
2017-Oct-12 05:30N 37°54' W 122°25'5 9.0
2017-Oct-12 05:00N 37°50' W 122°28'3 5.8
2017-Oct-12 04:30N 37°49' W 122°31'3 6.6
2017-Oct-12 04:00N 37°50' W 122°27'4 8.1
2017-Oct-12 03:30N 37°54' W 122°27'611.8
2017-Oct-12 03:00N 38°00' W 122°25'510.7
2017-Oct-12 02:31N 38°03' W 122°19'3 4.5
2017-Oct-12 01:51N 38°03' W 122°16'0 0.4
2017-Oct-12 01:31N 38°04' W 122°16'0 0.4
2017-Oct-12 01:01N 38°04' W 122°15'1 1.4
2017-Oct-12 00:30N 38°04' W 122°16'611.7
2017-Oct-12 00:00N 38°01' W 122°23'611.3
2017-Oct-11 23:30N 37°56' W 122°26'3 6.2
2017-Oct-11 23:00N 37°54' W 122°22'0 0.0
2017-Oct-11 22:30N 37°54' W 122°22'0 0.0
2017-Oct-11 22:00N 37°54' W 122°22'0 0.0
2017-Oct-11 21:30N 37°54' W 122°22'0 0.0
2017-Oct-11 21:00N 37°54' W 122°22'4 7.5
2017-Oct-11 20:30N 37°52' W 122°26'4 9.0
2017-Oct-11 20:00N 37°49' W 122°30'1 2.6
2017-Oct-11 19:30N 37°49' W 122°28'4 7.8
2017-Oct-11 19:00N 37°52' W 122°25'2 4.3
2017-Oct-11 18:30N 37°54' W 122°25'1 2.6
2017-Oct-11 18:00N 37°55' W 122°25'0 0.3
2017-Oct-11 17:30N 37°55' W 122°25'0 0.2
2017-Oct-11 17:00N 37°55' W 122°25'9 0.5
2017-Oct-11 00:00N 37°48' W 122°19'1 2.4
2017-Oct-10 23:31N 37°48' W 122°17'1 2.6
2017-Oct-10 23:00N 37°48' W 122°19'2 4.6
2017-Oct-10 22:30N 37°48' W 122°22'2 4.2
2017-Oct-10 22:00N 37°48' W 122°19'0 0.1
2017-Oct-10 21:30N 37°48' W 122°19'2 3.3
2017-Oct-10 21:00N 37°48' W 122°21'2 3.4
2017-Oct-10 20:30N 37°49' W 122°23'510.9
2017-Oct-10 20:00N 37°54' W 122°26'3 5.0
2017-Oct-10 19:29N 37°54' W 122°22'0 0.0
2017-Oct-10 18:59N 37°54' W 122°22'0 0.0
2017-Oct-10 18:26N 37°54' W 122°22'0 0.0
2017-Oct-10 17:59N 37°54' W 122°22'0 0.0
2017-Oct-10 17:29N 37°54' W 122°22'0 0.0
2017-Oct-10 16:57N 37°54' W 122°22'3 7.6
2017-Oct-10 16:30N 37°56' W 122°26'510.7
2017-Oct-10 16:00N 38°01' W 122°23'510.3
2017-Oct-10 15:29N 38°03' W 122°17'1 1.8
2017-Oct-10 15:00N 38°03' W 122°16'5 5.0
2017-Oct-10 13:59N 38°02' W 122°22'610.8
2017-Oct-10 13:28N 37°58' W 122°27'510.7
2017-Oct-10 13:00N 37°53' W 122°26'4 7.8
2017-Oct-10 12:30N 37°49' W 122°26'3 6.3
2017-Oct-10 12:00N 37°48' W 122°30'0 0.8
2017-Oct-10 11:30N 37°48' W 122°30'1 2.2
2017-Oct-10 11:01N 37°49' W 122°29'5 9.3
2017-Oct-10 10:30N 37°53' W 122°26'3 5.1
2017-Oct-10 10:00N 37°55' W 122°25'0 0.0
2017-Oct-10 09:30N 37°55' W 122°25'0 0.0
2017-Oct-10 09:00N 37°55' W 122°25'0 0.0
2017-Oct-10 08:30N 37°55' W 122°25'0 0.0
2017-Oct-10 08:00N 37°55' W 122°25'0 0.0
2017-Oct-10 07:30N 37°55' W 122°25'0 0.1
2017-Oct-10 07:01N 37°55' W 122°25'2 4.6
2017-Oct-10 06:30N 37°53' W 122°25'3 6.3
2017-Oct-10 06:00N 37°50' W 122°24'3 6.8
2017-Oct-10 05:30N 37°49' W 122°28'3 5.1
2017-Oct-10 05:01N 37°49' W 122°31'1 1.6
2017-Oct-10 04:31N 37°49' W 122°31'0 0.3
2017-Oct-10 04:00N 37°49' W 122°31'3 5.8
2017-Oct-10 03:30N 37°51' W 122°28'5 9.9
2017-Oct-10 03:00N 37°54' W 122°23'1 1.6
2017-Oct-10 02:29N 37°54' W 122°22'0 0.0
2017-Oct-10 01:53N 37°54' W 122°22'0 0.0
2017-Oct-10 01:26N 37°54' W 122°22'0 0.0
2017-Oct-10 00:59N 37°54' W 122°22'0 0.0
2017-Oct-10 00:29N 37°54' W 122°22'0 0.0
2017-Oct-09 23:59N 37°54' W 122°22'0 0.0
2017-Oct-09 23:26N 37°54' W 122°22'0 0.0
2017-Oct-09 22:59N 37°54' W 122°22'0 0.0
2017-Oct-09 22:26N 37°54' W 122°22'0 0.0
2017-Oct-09 21:44N 37°54' W 122°22'0 0.0
2017-Oct-09 21:30N 37°54' W 122°22'3 4.8
2017-Oct-09 20:55N 37°54' W 122°26'511.3
2017-Oct-09 20:30N 37°50' W 122°28'2 4.3
2017-Oct-09 20:01N 37°49' W 122°31'3 5.1
2017-Oct-09 19:31N 37°50' W 122°28'3 6.6
2017-Oct-09 19:01N 37°52' W 122°25'3 6.5
2017-Oct-09 18:31N 37°55' W 122°25'0 0.5
2017-Oct-09 17:57N 37°55' W 122°25'1 2.0
2017-Oct-09 17:26N 37°55' W 122°25'1 2.3
2017-Oct-09 16:59N 37°56' W 122°25'0 0.7
2017-Oct-09 16:30N 37°55' W 122°25'0 0.0
2017-Oct-09 15:55N 37°55' W 122°25'0 0.0
2017-Oct-09 15:19N 37°55' W 122°25'0 0.0
2017-Oct-09 14:58N 37°55' W 122°25'0 0.0
2017-Oct-09 14:25N 37°55' W 122°25'0 0.0
2017-Oct-09 13:37N 37°55' W 122°25'0 0.0
2017-Oct-09 13:22N 37°55' W 122°25'0 0.0
2017-Oct-09 12:58N 37°55' W 122°25'0 0.0
2017-Oct-09 12:28N 37°55' W 122°25'0 0.0
2017-Oct-09 11:55N 37°55' W 122°25'0 0.0
2017-Oct-09 11:19N 37°55' W 122°25'0 0.0
2017-Oct-09 10:58N 37°55' W 122°25'1 3.0
2017-Oct-09 10:30N 37°54' W 122°26'510.4
2017-Oct-09 10:00N 37°49' W 122°28'2 4.7
2017-Oct-09 09:30N 37°49' W 122°31'3 6.9
2017-Oct-09 09:00N 37°50' W 122°27'3 5.5
2017-Oct-09 08:30N 37°53' W 122°25'4 8.6
2017-Oct-09 08:00N 37°57' W 122°27'5 9.0
2017-Oct-09 07:30N 38°01' W 122°24'510.2
2017-Oct-09 07:00N 38°03' W 122°18'2 2.2
2017-Oct-09 06:06N 38°04' W 122°16'0 1.2
2017-Oct-09 05:59N 38°04' W 122°16'1 1.5
2017-Oct-09 05:30N 38°03' W 122°15'0 0.0
2017-Oct-09 02:23N 38°03' W 122°15'1 2.9
2017-Oct-09 01:55N 38°03' W 122°16'2 4.9
2017-Oct-09 01:29N 38°04' W 122°14'0 0.0
2017-Oct-09 01:00N 38°04' W 122°14'1 2.9
2017-Oct-09 00:31N 38°04' W 122°16'1 0.1
2017-Oct-08 20:34N 38°04' W 122°15'1 0.6
2017-Oct-08 19:35N 38°04' W 122°16'1 3.4
2017-Oct-08 19:23N 38°04' W 122°17'1 2.8
2017-Oct-08 19:00N 38°03' W 122°18'3 4.3
2017-Oct-08 18:25N 38°03' W 122°15'  
Track history (hours):
 
Tides and Currents Weather Stations Pressure Air Temp Water Temp Dewpoint Dewpoint Depression Visibility Wind Speed Wind Dir Waves Ship Positions

Caden Foss

Owner: Foss Maritime Co, Seattle, WA. More information available from US FCC via Universal Licensing System and Coast Guard Vessel Documentation Center.

Last reported at 2017-Oct-18 17:58 UTC. Time now 2017-Oct-18 18:18 UTC.
Position N 37°55' W 122°25'.

Length 34 m; draft 6.1 m.

Type: Tug. MMSI: 367795270.

Date/timePositionNaut miles runAvg speedWind from/ knotsBaromVisibWave heightAir tempDewpointWater temp
2017-Oct-18 17:58N 37°55' W 122°25'0 0.2
2017-Oct-18 16:55N 37°55' W 122°25'1 2.2
2017-Oct-18 16:30N 37°55' W 122°26'1 0.7
2017-Oct-18 14:56N 37°55' W 122°25'2 1.8
2017-Oct-18 13:49N 37°54' W 122°22'0 0.0
2017-Oct-18 13:25N 37°54' W 122°22'0 0.0
2017-Oct-18 12:55N 37°54' W 122°22'0 0.0
2017-Oct-18 12:25N 37°54' W 122°22'0 0.0
2017-Oct-18 11:55N 37°54' W 122°22'0 0.0
2017-Oct-18 11:25N 37°54' W 122°22'0 0.0
2017-Oct-18 10:55N 37°54' W 122°22'0 0.0
2017-Oct-18 10:19N 37°54' W 122°22'0 0.0
2017-Oct-18 09:55N 37°54' W 122°22'0 0.0
2017-Oct-18 09:25N 37°54' W 122°22'0 0.0
2017-Oct-18 08:55N 37°54' W 122°22'0 0.0
2017-Oct-18 08:25N 37°54' W 122°22'0 0.0
2017-Oct-18 07:55N 37°54' W 122°22'0 0.0
2017-Oct-18 07:25N 37°54' W 122°22'0 0.0
2017-Oct-18 06:55N 37°54' W 122°22'0 0.0
2017-Oct-18 06:25N 37°54' W 122°22'0 0.0
2017-Oct-18 05:55N 37°54' W 122°22'0 0.0
2017-Oct-18 05:19N 37°54' W 122°22'0 0.0
2017-Oct-18 04:58N 37°54' W 122°22'0 0.0
2017-Oct-18 04:19N 37°54' W 122°22'0 0.0
2017-Oct-18 03:55N 37°54' W 122°22'0 0.0
2017-Oct-18 03:28N 37°54' W 122°22'0 0.0
2017-Oct-18 02:58N 37°54' W 122°22'0 0.0
2017-Oct-18 02:28N 37°54' W 122°22'0 0.0
2017-Oct-18 01:58N 37°54' W 122°22'0 0.0
2017-Oct-18 01:22N 37°54' W 122°22'0 0.0
2017-Oct-18 00:52N 37°54' W 122°22'0 0.0
2017-Oct-18 00:25N 37°54' W 122°22'0 0.0
2017-Oct-17 23:58N 37°54' W 122°22'0 0.0
2017-Oct-17 23:22N 37°54' W 122°22'0 0.0
2017-Oct-17 22:58N 37°54' W 122°22'0 0.0
2017-Oct-17 22:28N 37°54' W 122°22'0 0.0
2017-Oct-17 21:58N 37°54' W 122°22'0 0.0
2017-Oct-17 21:28N 37°54' W 122°22'0 0.0
2017-Oct-17 20:49N 37°54' W 122°22'0 0.0
2017-Oct-17 20:10N 37°54' W 122°22'0 0.0
2017-Oct-17 19:58N 37°54' W 122°22'0 0.0
2017-Oct-17 19:16N 37°54' W 122°22'0 0.0
2017-Oct-17 18:55N 37°54' W 122°22'0 0.0
2017-Oct-17 18:23N 37°54' W 122°22'2 5.7
2017-Oct-17 17:59N 37°54' W 122°25'511.2
2017-Oct-17 17:30N 37°50' W 122°22'3 6.5
2017-Oct-17 17:00N 37°48' W 122°19'1 1.7
2017-Oct-17 16:30N 37°48' W 122°17'1 2.5
2017-Oct-17 16:00N 37°48' W 122°19'0 0.2
2017-Oct-17 15:30N 37°48' W 122°19'0 0.0
2017-Oct-17 15:00N 37°48' W 122°19'0 0.0
2017-Oct-17 14:30N 37°48' W 122°19'0 0.0
2017-Oct-17 14:00N 37°48' W 122°19'0 0.0
2017-Oct-17 13:30N 37°48' W 122°19'1 2.7
2017-Oct-17 13:01N 37°48' W 122°21'2 3.2
2017-Oct-17 12:30N 37°46' W 122°21'3 6.5
2017-Oct-17 12:00N 37°49' W 122°24'611.5
2017-Oct-17 11:30N 37°54' W 122°25'2 3.4
2017-Oct-17 11:00N 37°54' W 122°23'1 2.6
2017-Oct-17 10:31N 37°55' W 122°22'0 0.0
2017-Oct-17 10:00N 37°55' W 122°22'1 1.2
2017-Oct-17 09:30N 37°54' W 122°22'0 0.8
2017-Oct-17 08:58N 37°54' W 122°22'0 0.0
2017-Oct-17 08:28N 37°54' W 122°22'0 0.0
2017-Oct-17 07:58N 37°54' W 122°22'0 0.0
2017-Oct-17 07:28N 37°54' W 122°22'0 0.0
2017-Oct-17 06:58N 37°54' W 122°22'0 0.0
2017-Oct-17 06:28N 37°54' W 122°22'0 0.0
2017-Oct-17 05:58N 37°54' W 122°22'0 0.0
2017-Oct-17 05:28N 37°54' W 122°22'0 0.0
2017-Oct-17 04:58N 37°54' W 122°22'0 0.0
2017-Oct-17 04:28N 37°54' W 122°22'0 0.0
2017-Oct-17 03:58N 37°54' W 122°22'0 0.0
2017-Oct-17 03:16N 37°54' W 122°22'1 3.5
2017-Oct-17 03:00N 37°55' W 122°22'1 1.1
2017-Oct-17 02:30N 37°55' W 122°22'1 1.2
2017-Oct-17 02:00N 37°54' W 122°22'0 0.0
2017-Oct-17 01:30N 37°54' W 122°22'0 0.0
2017-Oct-17 00:58N 37°54' W 122°22'0 0.2
2017-Oct-17 00:28N 37°54' W 122°22'0 0.2
2017-Oct-16 23:58N 37°54' W 122°22'2 3.4
2017-Oct-16 23:30N 37°55' W 122°24'1 1.4
2017-Oct-16 22:58N 37°55' W 122°25'0 0.0
2017-Oct-16 22:28N 37°55' W 122°25'0 0.0
2017-Oct-16 21:58N 37°55' W 122°25'0 0.0
2017-Oct-16 21:28N 37°55' W 122°25'0 0.0
2017-Oct-16 20:58N 37°55' W 122°25'0 0.0
2017-Oct-16 20:28N 37°55' W 122°25'0 0.0
2017-Oct-16 19:58N 37°55' W 122°25'0 0.0
2017-Oct-16 19:28N 37°55' W 122°25'0 0.0
2017-Oct-16 18:55N 37°55' W 122°25'0 0.0
2017-Oct-16 18:28N 37°55' W 122°25'0 0.0
2017-Oct-16 17:58N 37°55' W 122°25'0 0.0
2017-Oct-16 17:28N 37°55' W 122°25'0 0.0
2017-Oct-16 16:58N 37°55' W 122°25'0 0.0
2017-Oct-16 16:28N 37°55' W 122°25'0 0.0
2017-Oct-16 15:58N 37°55' W 122°25'0 0.0
2017-Oct-16 15:28N 37°55' W 122°25'0 0.0
2017-Oct-16 14:58N 37°55' W 122°25'0 0.0
2017-Oct-16 14:00N 37°55' W 122°25'0 0.0
2017-Oct-16 13:30N 37°55' W 122°25'0 0.0
2017-Oct-16 13:01N 37°55' W 122°25'0 0.0
2017-Oct-16 12:30N 37°55' W 122°25'0 0.0
2017-Oct-16 12:01N 37°55' W 122°25'0 0.0
2017-Oct-16 11:31N 37°55' W 122°25'0 0.0
2017-Oct-16 11:01N 37°55' W 122°25'0 0.0
2017-Oct-16 10:30N 37°55' W 122°25'0 0.0
2017-Oct-16 10:01N 37°55' W 122°25'0 0.0
2017-Oct-16 09:31N 37°55' W 122°25'0 0.0
2017-Oct-16 09:01N 37°55' W 122°25'0 0.0
2017-Oct-16 08:30N 37°55' W 122°25'0 0.0
2017-Oct-16 08:01N 37°55' W 122°25'0 0.0
2017-Oct-16 07:31N 37°55' W 122°25'0 0.0
2017-Oct-16 07:01N 37°55' W 122°25'1 1.9
2017-Oct-16 06:30N 37°55' W 122°25'1 1.9
2017-Oct-16 06:01N 37°55' W 122°25'0 0.3
2017-Oct-16 05:31N 37°55' W 122°25'0 0.4
2017-Oct-16 05:00N 37°55' W 122°25'0 0.0
2017-Oct-16 04:30N 37°55' W 122°25'0 0.0
2017-Oct-16 04:00N 37°55' W 122°25'0 0.0
2017-Oct-16 03:30N 37°55' W 122°25'0 0.0
2017-Oct-16 02:57N 37°55' W 122°25'0 0.0
2017-Oct-16 02:30N 37°55' W 122°25'0 0.0
2017-Oct-16 02:00N 37°55' W 122°25'0 0.0
2017-Oct-16 01:27N 37°55' W 122°25'0 0.0
2017-Oct-16 01:00N 37°55' W 122°25'0 0.0
2017-Oct-16 00:30N 37°55' W 122°25'0 0.0
2017-Oct-15 23:57N 37°55' W 122°25'0 0.0
2017-Oct-15 23:30N 37°55' W 122°25'0 0.0
2017-Oct-15 23:00N 37°55' W 122°25'0 0.0
2017-Oct-15 22:30N 37°55' W 122°25'0 0.0
2017-Oct-15 22:00N 37°55' W 122°25'0 0.0
2017-Oct-15 21:30N 37°55' W 122°25'0 0.0
2017-Oct-15 20:57N 37°55' W 122°25'0 0.0
2017-Oct-15 20:30N 37°55' W 122°25'0 0.0
2017-Oct-15 20:00N 37°55' W 122°25'0 0.0
2017-Oct-15 19:27N 37°55' W 122°25'0 0.0
2017-Oct-15 19:00N 37°55' W 122°25'0 0.0
2017-Oct-15 18:30N 37°55' W 122°25'0 0.0
2017-Oct-15 18:00N 37°55' W 122°25'0 0.0
2017-Oct-15 17:30N 37°55' W 122°25'0 0.0
2017-Oct-15 17:00N 37°55' W 122°25'0 0.0
2017-Oct-15 16:30N 37°55' W 122°25'0 0.0
2017-Oct-15 15:57N 37°55' W 122°25'0 0.0
2017-Oct-15 15:21N 37°55' W 122°25'0 0.0
2017-Oct-15 15:00N 37°55' W 122°25'0 0.0
2017-Oct-15 13:59N 37°55' W 122°25'0 0.0
2017-Oct-15 13:24N 37°55' W 122°25'0 0.0
2017-Oct-15 13:00N 37°55' W 122°25'0 0.0
2017-Oct-15 12:30N 37°55' W 122°25'0 0.0
2017-Oct-15 11:57N 37°55' W 122°25'0 0.0
2017-Oct-15 11:30N 37°55' W 122°25'0 0.0
2017-Oct-15 10:59N 37°55' W 122°25'0 0.0
2017-Oct-15 10:30N 37°55' W 122°25'0 0.0
2017-Oct-15 09:56N 37°55' W 122°25'0 0.0
2017-Oct-15 09:27N 37°55' W 122°25'0 0.0
2017-Oct-15 09:00N 37°55' W 122°25'0 0.0
2017-Oct-15 08:29N 37°55' W 122°25'0 0.0
2017-Oct-15 08:00N 37°55' W 122°25'0 0.0
2017-Oct-15 07:30N 37°55' W 122°25'0 0.0
2017-Oct-15 07:00N 37°55' W 122°25'0 0.0
2017-Oct-15 06:29N 37°55' W 122°25'0 0.6
2017-Oct-15 06:00N 37°56' W 122°25'0 0.3
2017-Oct-15 05:30N 37°55' W 122°25'2 3.4
2017-Oct-15 05:00N 37°54' W 122°25'4 8.1
2017-Oct-15 04:30N 37°50' W 122°24'3 6.9
2017-Oct-15 04:01N 37°49' W 122°28'1 2.2
2017-Oct-15 03:30N 37°49' W 122°30'1 1.2
2017-Oct-15 03:00N 37°49' W 122°31'2 3.1
2017-Oct-15 02:30N 37°49' W 122°29'4 8.2
2017-Oct-15 02:00N 37°53' W 122°26'3 6.7
2017-Oct-15 01:30N 37°54' W 122°22'0 0.0
2017-Oct-15 00:58N 37°54' W 122°22'0 0.0
2017-Oct-15 00:28N 37°54' W 122°22'0 0.0
2017-Oct-14 23:55N 37°54' W 122°22'0 0.0
2017-Oct-14 23:25N 37°54' W 122°22'0 0.0
2017-Oct-14 22:58N 37°54' W 122°22'0 0.0
2017-Oct-14 22:28N 37°54' W 122°22'0 0.0
2017-Oct-14 21:58N 37°54' W 122°22'0 0.0
2017-Oct-14 21:28N 37°54' W 122°22'0 0.0
2017-Oct-14 20:58N 37°54' W 122°22'0 0.0
2017-Oct-14 20:25N 37°54' W 122°22'0 0.0
2017-Oct-14 19:58N 37°54' W 122°22'0 0.0
2017-Oct-14 19:28N 37°54' W 122°22'0 0.0
2017-Oct-14 18:58N 37°54' W 122°22'0 0.0
2017-Oct-14 18:28N 37°54' W 122°22'0 0.0
2017-Oct-14 17:55N 37°54' W 122°22'0 0.0
2017-Oct-14 17:28N 37°54' W 122°22'0 0.0
2017-Oct-14 16:58N 37°54' W 122°22'0 0.0
2017-Oct-14 16:28N 37°54' W 122°22'0 0.0
2017-Oct-14 15:58N 37°54' W 122°22'0 0.0
2017-Oct-14 15:25N 37°54' W 122°22'0 0.0
2017-Oct-14 14:58N 37°54' W 122°22'2 4.6
2017-Oct-14 14:30N 37°55' W 122°25'510.6
2017-Oct-14 14:01N 37°50' W 122°22'3 5.9
2017-Oct-14 13:30N 37°48' W 122°19'0 0.8
2017-Oct-14 13:00N 37°48' W 122°19'1 2.4
2017-Oct-14 12:30N 37°48' W 122°17'2 3.2
2017-Oct-14 12:00N 37°48' W 122°19'1 1.5
2017-Oct-14 11:30N 37°48' W 122°20'2 4.7
2017-Oct-14 11:00N 37°49' W 122°23'611.1
2017-Oct-14 10:30N 37°55' W 122°25'2 3.0
2017-Oct-14 09:52N 37°54' W 122°22'0 0.0
2017-Oct-14 09:28N 37°54' W 122°22'0 0.0
2017-Oct-14 08:58N 37°54' W 122°22'0 0.0
2017-Oct-14 08:28N 37°54' W 122°22'0 0.0
2017-Oct-14 07:58N 37°54' W 122°22'0 0.0
2017-Oct-14 07:28N 37°54' W 122°22'0 0.0
2017-Oct-14 06:58N 37°54' W 122°22'0 0.0
2017-Oct-14 06:28N 37°54' W 122°22'0 0.0
2017-Oct-14 05:58N 37°54' W 122°22'0 0.0
2017-Oct-14 05:22N 37°54' W 122°22'0 0.0
2017-Oct-14 04:52N 37°54' W 122°22'0 0.0
2017-Oct-14 04:28N 37°54' W 122°22'0 0.0
2017-Oct-14 03:55N 37°54' W 122°22'0 0.0
2017-Oct-14 03:25N 37°54' W 122°22'0 0.0
2017-Oct-14 02:58N 37°54' W 122°22'0 0.0
2017-Oct-14 02:25N 37°54' W 122°22'0 0.0
2017-Oct-14 01:58N 37°54' W 122°22'0 0.0
2017-Oct-14 01:28N 37°54' W 122°22'0 0.0
2017-Oct-14 00:49N 37°54' W 122°22'0 0.0
2017-Oct-14 00:28N 37°54' W 122°22'0 0.0
2017-Oct-13 23:58N 37°54' W 122°22'0 0.0
2017-Oct-13 23:25N 37°54' W 122°22'0 0.0
2017-Oct-13 22:58N 37°54' W 122°22'0 0.0
2017-Oct-13 22:28N 37°54' W 122°22'0 0.0
2017-Oct-13 21:58N 37°54' W 122°22'0 0.0
2017-Oct-13 21:28N 37°54' W 122°22'0 0.0
2017-Oct-13 20:58N 37°54' W 122°22'0 0.0
2017-Oct-13 20:25N 37°54' W 122°22'0 0.0
2017-Oct-13 19:58N 37°54' W 122°22'0 0.0
2017-Oct-13 19:28N 37°54' W 122°22'0 0.0
2017-Oct-13 18:55N 37°54' W 122°22'0 0.0
2017-Oct-13 18:28N 37°54' W 122°22'0 0.0
2017-Oct-13 17:58N 37°54' W 122°22'0 0.0
2017-Oct-13 17:28N 37°54' W 122°22'0 0.0
2017-Oct-13 16:58N 37°54' W 122°22'0 0.0
2017-Oct-13 16:25N 37°54' W 122°22'0 0.0
2017-Oct-13 15:58N 37°54' W 122°22'0 0.0
2017-Oct-13 15:25N 37°54' W 122°22'0 0.0
2017-Oct-13 14:58N 37°54' W 122°22'0 0.0
2017-Oct-13 14:25N 37°54' W 122°22'0 0.0
2017-Oct-13 13:58N 37°54' W 122°22'0 0.0
2017-Oct-13 13:28N 37°54' W 122°22'0 0.0
2017-Oct-13 12:58N 37°54' W 122°22'0 0.0
2017-Oct-13 12:28N 37°54' W 122°22'0 0.0
2017-Oct-13 11:58N 37°54' W 122°22'0 0.0
2017-Oct-13 11:30N 37°54' W 122°22'3 7.0
2017-Oct-13 11:00N 37°53' W 122°26'5 9.9
2017-Oct-13 10:30N 37°49' W 122°31'1 1.1
2017-Oct-13 10:01N 37°49' W 122°31'1 2.7
2017-Oct-13 09:30N 37°49' W 122°29'3 6.9
2017-Oct-13 09:00N 37°50' W 122°25'3 6.0
2017-Oct-13 08:30N 37°53' W 122°25'1 1.7
2017-Oct-13 08:00N 37°54' W 122°26'1 2.6
2017-Oct-13 07:30N 37°55' W 122°25'1 1.1
2017-Oct-13 07:00N 37°55' W 122°25'0 0.4
2017-Oct-13 06:30N 37°55' W 122°25'0 0.0
2017-Oct-13 05:55N 37°55' W 122°25'0 0.0
2017-Oct-13 05:28N 37°55' W 122°25'0 0.0
2017-Oct-13 04:58N 37°55' W 122°25'0 0.0
2017-Oct-13 04:28N 37°55' W 122°25'0 0.0
2017-Oct-13 03:58N 37°55' W 122°25'0 0.0
2017-Oct-13 03:28N 37°55' W 122°25'0 0.0
2017-Oct-13 02:55N 37°55' W 122°25'0 0.0
2017-Oct-13 02:28N 37°55' W 122°25'0 0.0
2017-Oct-13 01:58N 37°55' W 122°25'1 3.0
2017-Oct-13 01:30N 37°54' W 122°23'1 2.3
2017-Oct-13 00:59N 37°54' W 122°22'0 0.3
2017-Oct-13 00:31N 37°54' W 122°22'0 0.7
2017-Oct-12 23:56N 37°54' W 122°22'0 0.0
2017-Oct-12 23:20N 37°54' W 122°22'0 0.0
2017-Oct-12 22:56N 37°54' W 122°22'0 0.0
2017-Oct-12 22:26N 37°54' W 122°22'0 0.0
2017-Oct-12 21:55N 37°54' W 122°22'0 0.0
2017-Oct-12 21:28N 37°54' W 122°22'0 0.0
2017-Oct-12 20:58N 37°54' W 122°22'0 0.0
2017-Oct-12 20:22N 37°54' W 122°22'0 0.0
2017-Oct-12 19:58N 37°54' W 122°22'0 0.0
2017-Oct-12 19:28N 37°54' W 122°22'0 0.0
2017-Oct-12 18:58N 37°54' W 122°22'0 0.0
2017-Oct-12 18:28N 37°54' W 122°22'0 0.0
2017-Oct-12 17:58N 37°54' W 122°22'0 0.0
2017-Oct-12 17:28N 37°54' W 122°22'0 0.0
2017-Oct-12 16:58N 37°54' W 122°22'0 0.0
2017-Oct-12 16:28N 37°54' W 122°22'0 0.0
2017-Oct-12 15:58N 37°54' W 122°22'0 0.0
2017-Oct-12 15:28N 37°54' W 122°22'0 0.0
2017-Oct-12 14:58N 37°54' W 122°22'0 0.0
2017-Oct-12 14:28N 37°54' W 122°22'1 2.0
2017-Oct-12 14:00N 37°54' W 122°23'4 7.6
2017-Oct-12 13:30N 37°51' W 122°23'4 7.8
2017-Oct-12 13:00N 37°48' W 122°19'0 0.1
2017-Oct-12 12:30N 37°48' W 122°19'2 3.3
2017-Oct-12 12:00N 37°48' W 122°17'1 2.9
2017-Oct-12 11:31N 37°48' W 122°19'2 4.3
2017-Oct-12 11:01N 37°47' W 122°22'1 1.9
2017-Oct-12 10:30N 37°48' W 122°21'1 2.6
2017-Oct-12 10:00N 37°49' W 122°23'4 8.7
2017-Oct-12 09:30N 37°53' W 122°25'3 5.1
2017-Oct-12 09:00N 37°55' W 122°25'0 0.2
2017-Oct-12 08:30N 37°55' W 122°25'3 5.1
2017-Oct-12 08:00N 37°55' W 122°22'1 1.4
2017-Oct-12 07:30N 37°55' W 122°22'1 1.8
2017-Oct-12 07:00N 37°54' W 122°22'0 0.0
2017-Oct-12 06:29N 37°54' W 122°22'0 0.0
2017-Oct-12 05:59N 37°54' W 122°22'2 4.4
2017-Oct-12 05:30N 37°54' W 122°25'5 9.0
2017-Oct-12 05:00N 37°50' W 122°28'3 5.8
2017-Oct-12 04:30N 37°49' W 122°31'3 6.6
2017-Oct-12 04:00N 37°50' W 122°27'4 8.1
2017-Oct-12 03:30N 37°54' W 122°27'611.8
2017-Oct-12 03:00N 38°00' W 122°25'510.7
2017-Oct-12 02:31N 38°03' W 122°19'3 4.5
2017-Oct-12 01:51N 38°03' W 122°16'0 0.4
2017-Oct-12 01:31N 38°04' W 122°16'0 0.4
2017-Oct-12 01:01N 38°04' W 122°15'1 1.4
2017-Oct-12 00:30N 38°04' W 122°16'611.7
2017-Oct-12 00:00N 38°01' W 122°23'611.3
2017-Oct-11 23:30N 37°56' W 122°26'3 6.2
2017-Oct-11 23:00N 37°54' W 122°22'0 0.0
2017-Oct-11 22:30N 37°54' W 122°22'0 0.0
2017-Oct-11 22:00N 37°54' W 122°22'0 0.0
2017-Oct-11 21:30N 37°54' W 122°22'0 0.0
2017-Oct-11 21:00N 37°54' W 122°22'4 7.5
2017-Oct-11 20:30N 37°52' W 122°26'4 9.0
2017-Oct-11 20:00N 37°49' W 122°30'1 2.6
2017-Oct-11 19:30N 37°49' W 122°28'4 7.8
2017-Oct-11 19:00N 37°52' W 122°25'2 4.3
2017-Oct-11 18:30N 37°54' W 122°25'1 2.6
2017-Oct-11 18:00N 37°55' W 122°25'0 0.3
2017-Oct-11 17:30N 37°55' W 122°25'0 0.2
2017-Oct-11 17:00N 37°55' W 122°25'9 0.5
2017-Oct-11 00:00N 37°48' W 122°19'1 2.4
2017-Oct-10 23:31N 37°48' W 122°17'1 2.6
2017-Oct-10 23:00N 37°48' W 122°19'2 4.6
2017-Oct-10 22:30N 37°48' W 122°22'2 4.2
2017-Oct-10 22:00N 37°48' W 122°19'0 0.1
2017-Oct-10 21:30N 37°48' W 122°19'2 3.3
2017-Oct-10 21:00N 37°48' W 122°21'2 3.4
2017-Oct-10 20:30N 37°49' W 122°23'510.9
2017-Oct-10 20:00N 37°54' W 122°26'3 5.0
2017-Oct-10 19:29N 37°54' W 122°22'0 0.0
2017-Oct-10 18:59N 37°54' W 122°22'0 0.0
2017-Oct-10 18:26N 37°54' W 122°22'0 0.0
2017-Oct-10 17:59N 37°54' W 122°22'0 0.0
2017-Oct-10 17:29N 37°54' W 122°22'0 0.0
2017-Oct-10 16:57N 37°54' W 122°22'3 7.6
2017-Oct-10 16:30N 37°56' W 122°26'510.7
2017-Oct-10 16:00N 38°01' W 122°23'510.3
2017-Oct-10 15:29N 38°03' W 122°17'1 1.8
2017-Oct-10 15:00N 38°03' W 122°16'5 5.0
2017-Oct-10 13:59N 38°02' W 122°22'610.8
2017-Oct-10 13:28N 37°58' W 122°27'510.7
2017-Oct-10 13:00N 37°53' W 122°26'4 7.8
2017-Oct-10 12:30N 37°49' W 122°26'3 6.3
2017-Oct-10 12:00N 37°48' W 122°30'0 0.8
2017-Oct-10 11:30N 37°48' W 122°30'1 2.2
2017-Oct-10 11:01N 37°49' W 122°29'5 9.3
2017-Oct-10 10:30N 37°53' W 122°26'3 5.1
2017-Oct-10 10:00N 37°55' W 122°25'0 0.0
2017-Oct-10 09:30N 37°55' W 122°25'0 0.0
2017-Oct-10 09:00N 37°55' W 122°25'0 0.0
2017-Oct-10 08:30N 37°55' W 122°25'0 0.0
2017-Oct-10 08:00N 37°55' W 122°25'0 0.0
2017-Oct-10 07:30N 37°55' W 122°25'0 0.1
2017-Oct-10 07:01N 37°55' W 122°25'2 4.6
2017-Oct-10 06:30N 37°53' W 122°25'3 6.3
2017-Oct-10 06:00N 37°50' W 122°24'3 6.8
2017-Oct-10 05:30N 37°49' W 122°28'3 5.1
2017-Oct-10 05:01N 37°49' W 122°31'1 1.6
2017-Oct-10 04:31N 37°49' W 122°31'0 0.3
2017-Oct-10 04:00N 37°49' W 122°31'3 5.8
2017-Oct-10 03:30N 37°51' W 122°28'5 9.9
2017-Oct-10 03:00N 37°54' W 122°23'1 1.6
2017-Oct-10 02:29N 37°54' W 122°22'0 0.0
2017-Oct-10 01:53N 37°54' W 122°22'0 0.0
2017-Oct-10 01:26N 37°54' W 122°22'0 0.0
2017-Oct-10 00:59N 37°54' W 122°22'0 0.0
2017-Oct-10 00:29N 37°54' W 122°22'0 0.0
2017-Oct-09 23:59N 37°54' W 122°22'0 0.0
2017-Oct-09 23:26N 37°54' W 122°22'0 0.0
2017-Oct-09 22:59N 37°54' W 122°22'0 0.0
2017-Oct-09 22:26N 37°54' W 122°22'0 0.0
2017-Oct-09 21:44N 37°54' W 122°22'0 0.0
2017-Oct-09 21:30N 37°54' W 122°22'3 4.8
2017-Oct-09 20:55N 37°54' W 122°26'511.3
2017-Oct-09 20:30N 37°50' W 122°28'2 4.3
2017-Oct-09 20:01N 37°49' W 122°31'3 5.1
2017-Oct-09 19:31N 37°50' W 122°28'3 6.6
2017-Oct-09 19:01N 37°52' W 122°25'3 6.5
2017-Oct-09 18:31N 37°55' W 122°25'0 0.5
2017-Oct-09 17:57N 37°55' W 122°25'1 2.0
2017-Oct-09 17:26N 37°55' W 122°25'1 2.3
2017-Oct-09 16:59N 37°56' W 122°25'0 0.7
2017-Oct-09 16:30N 37°55' W 122°25'0 0.0
2017-Oct-09 15:55N 37°55' W 122°25'0 0.0
2017-Oct-09 15:19N 37°55' W 122°25'0 0.0
2017-Oct-09 14:58N 37°55' W 122°25'0 0.0
2017-Oct-09 14:25N 37°55' W 122°25'0 0.0
2017-Oct-09 13:37N 37°55' W 122°25'0 0.0
2017-Oct-09 13:22N 37°55' W 122°25'0 0.0
2017-Oct-09 12:58N 37°55' W 122°25'0 0.0
2017-Oct-09 12:28N 37°55' W 122°25'0 0.0
2017-Oct-09 11:55N 37°55' W 122°25'0 0.0
2017-Oct-09 11:19N 37°55' W 122°25'0 0.0
2017-Oct-09 10:58N 37°55' W 122°25'1 3.0
2017-Oct-09 10:30N 37°54' W 122°26'510.4
2017-Oct-09 10:00N 37°49' W 122°28'2 4.7
2017-Oct-09 09:30N 37°49' W 122°31'3 6.9
2017-Oct-09 09:00N 37°50' W 122°27'3 5.5
2017-Oct-09 08:30N 37°53' W 122°25'4 8.6
2017-Oct-09 08:00N 37°57' W 122°27'5 9.0
2017-Oct-09 07:30N 38°01' W 122°24'510.2
2017-Oct-09 07:00N 38°03' W 122°18'2 2.2
2017-Oct-09 06:06N 38°04' W 122°16'0 1.2
2017-Oct-09 05:59N 38°04' W 122°16'1 1.5
2017-Oct-09 05:30N 38°03' W 122°15'0 0.0
2017-Oct-09 02:23N 38°03' W 122°15'1 2.9
2017-Oct-09 01:55N 38°03' W 122°16'2 4.9
2017-Oct-09 01:29N 38°04' W 122°14'0 0.0
2017-Oct-09 01:00N 38°04' W 122°14'1 2.9
2017-Oct-09 00:31N 38°04' W 122°16'1 0.1
2017-Oct-08 20:34N 38°04' W 122°15'1 0.6
2017-Oct-08 19:35N 38°04' W 122°16'1 3.4
2017-Oct-08 19:23N 38°04' W 122°17'1 2.8
2017-Oct-08 19:00N 38°03' W 122°18'3 4.3
2017-Oct-08 18:25N 38°03' W 122°15'  

Dump ship's entire track history